»·PEaware :: N1SC KBUR-KLAS

N1SC :: KBUR-KLAS

FLIGHT INFORMATION

Flight Status: Arrived
Operator: Privately registered:
United States
More flights under this callsign
Pilot: Chris C. (10181)
Aircraft: Unknown
(SF50)
More flights by this aircraft type
Origin: KBUR Bob Hope-Burbank
United States
Destination: KLAS McCarran Intl
United States
More flights between these airports :: More routes between these airports
Route: +SLAPP1 MISEN KEPEC6
File this flight plan on PilotEdge
Remarks: I-5 Rating
Altitude:
(Current/Filed)
25,000ft
Speed:
(Current/Filed)
310kts
Departed: 04-Oct-18 09:02 AM
Arrived: 04-Oct-18 10:01 AM
Distance/Time
Traveled:
193nm/0:59
Distance/Time
To Go:
Arrived

Flight Plot

Page will automatically refresh every two minutes.

Flight plan parsing failed; only flown route is shown


Map Options




Map Legend


Flown Route
Filed Route
Departure Airport
Arrival Airport
Navaid (VOR, NDB)
Fix

Horizontal Profiles

Position Reports

Time Latitude Longitude Heading Altitude Ground
Speed
04-Oct-18 08:45 34.200203 -118.358745 263 734ft 0kts
04-Oct-18 08:46 34.200203 -118.358745 263 734ft 0kts
04-Oct-18 08:47 34.200203 -118.358745 263 734ft 0kts
04-Oct-18 08:48 34.200203 -118.358745 263 734ft 0kts
04-Oct-18 08:49 34.200203 -118.358745 263 734ft 0kts
04-Oct-18 08:50 34.200203 -118.358745 263 734ft 0kts
04-Oct-18 08:51 34.200203 -118.358745 263 734ft 0kts
04-Oct-18 08:52 34.200203 -118.358745 263 734ft 0kts
04-Oct-18 08:53 34.200203 -118.358745 263 734ft 0kts
04-Oct-18 08:54 34.200203 -118.358745 263 734ft 0kts
04-Oct-18 08:55 34.200203 -118.358745 263 734ft 0kts
04-Oct-18 08:56 34.200203 -118.358745 263 734ft 0kts
04-Oct-18 08:57 34.200550 -118.358552 20 734ft 8kts
04-Oct-18 08:58 34.205448 -118.359729 347 734ft 22kts
04-Oct-18 08:59 34.211207 -118.361296 346 734ft 12kts
04-Oct-18 09:00 34.211621 -118.361248 36 734ft 0kts
04-Oct-18 09:01 34.212156 -118.360414 164 734ft 0kts
04-Oct-18 09:02 34.212156 -118.360414 164 734ft 0kts
04-Oct-18 09:03 34.211989 -118.360362 167 734ft 19kts
04-Oct-18 09:04 34.189318 -118.365079 217 2147ft 95kts
04-Oct-18 09:05 34.166674 -118.388431 221 3269ft 114kts
04-Oct-18 09:06 34.165041 -118.417090 348 4506ft 132kts
04-Oct-18 09:07 34.207942 -118.423040 352 5878ft 179kts
04-Oct-18 09:08 34.261831 -118.430265 352 7223ft 211kts
04-Oct-18 09:09 34.318578 -118.402227 22 8540ft 230kts
04-Oct-18 09:10 34.378234 -118.371324 20 9842ft 236kts
04-Oct-18 09:11 34.439091 -118.343058 18 11268ft 231kts
04-Oct-18 09:12 34.487981 -118.307207 36 13522ft 192kts
04-Oct-18 09:13 34.528492 -118.267043 35 15086ft 185kts
04-Oct-18 09:14 34.567032 -118.228507 34 16631ft 181kts
04-Oct-18 09:15 34.606880 -118.188624 34 17984ft 198kts
04-Oct-18 09:16 34.652779 -118.142585 34 19035ft 230kts
04-Oct-18 09:17 34.672952 -118.080390 78 19909ft 253kts
04-Oct-18 09:18 34.690491 -117.978630 80 21103ft 272kts
04-Oct-18 09:19 34.696861 -117.885923 87 22117ft 280kts
04-Oct-18 09:20 34.701648 -117.806542 87 22962ft 285kts
04-Oct-18 09:21 34.707082 -117.693606 89 24150ft 288kts
04-Oct-18 09:22 34.710245 -117.612752 89 24996ft 289kts
04-Oct-18 09:23 34.714618 -117.509489 80 25082ft 324kts
04-Oct-18 09:24 34.747541 -117.383304 71 25100ft 346kts
04-Oct-18 09:25 34.772264 -117.290167 72 25089ft 352kts
04-Oct-18 09:26 34.802480 -117.175861 72 25078ft 356kts
04-Oct-18 09:27 34.832693 -117.061095 72 25065ft 358kts
04-Oct-18 09:28 34.862891 -116.945882 72 25058ft 359kts
04-Oct-18 09:29 34.893076 -116.830203 72 25057ft 359kts
04-Oct-18 09:30 34.926402 -116.716116 51 24978ft 360kts
04-Oct-18 09:31 34.985117 -116.612200 52 24087ft 380kts
04-Oct-18 09:32 35.043740 -116.508125 52 24066ft 369kts
04-Oct-18 09:33 35.100098 -116.408003 50 24076ft 364kts
04-Oct-18 09:34 35.169034 -116.320474 42 23607ft 372kts
04-Oct-18 09:35 35.242363 -116.228498 42 22609ft 383kts
04-Oct-18 09:36 35.316520 -116.135223 42 21605ft 382kts
04-Oct-18 09:37 35.389844 -116.042746 43 20449ft 374kts
04-Oct-18 09:38 35.460888 -115.952902 43 18941ft 362kts
04-Oct-18 09:39 35.529954 -115.865324 44 17448ft 354kts
04-Oct-18 09:40 35.597188 -115.779865 44 15112ft 344kts
04-Oct-18 09:41 35.660434 -115.699229 44 13024ft 312kts
04-Oct-18 09:42 35.721164 -115.621637 44 13020ft 317kts
04-Oct-18 09:43 35.795046 -115.573580 2 13038ft 310kts
04-Oct-18 09:44 35.880893 -115.568717 358 13015ft 311kts
04-Oct-18 09:45 35.965728 -115.556290 32 12667ft 315kts
04-Oct-18 09:46 36.001113 -115.469966 68 11079ft 287kts
04-Oct-18 09:47 36.029608 -115.380620 67 10997ft 280kts
04-Oct-18 09:48 36.024697 -115.288079 96 10733ft 270kts
04-Oct-18 09:49 36.018127 -115.196476 96 9433ft 277kts
04-Oct-18 09:50 36.012107 -115.107732 96 8024ft 246kts
04-Oct-18 09:51 36.007041 -115.026351 94 8028ft 241kts
04-Oct-18 09:52 36.001947 -114.940873 94 8009ft 253kts
04-Oct-18 09:53 35.996751 -114.854748 94 8009ft 251kts
04-Oct-18 09:54 35.999402 -114.771627 43 8006ft 235kts
04-Oct-18 09:55 36.044260 -114.796841 301 6957ft 216kts
04-Oct-18 09:56 36.075859 -114.860952 301 5759ft 217kts
04-Oct-18 09:57 36.104888 -114.922074 301 5498ft 198kts
04-Oct-18 09:58 36.126336 -114.982913 285 5670ft 183kts
04-Oct-18 09:59 36.135089 -115.044704 276 5516ft 186kts
04-Oct-18 10:00 36.139826 -115.104974 268 4847ft 162kts
04-Oct-18 10:01 36.124520 -115.143553 196 3408ft 116kts
04-Oct-18 10:02 36.099619 -115.156411 201 2157ft 89kts
04-Oct-18 10:03 36.089379 -115.163446 295 2115ft 10kts
04-Oct-18 10:04 36.089522 -115.163826 294 2115ft 5kts

Navigation Log

Ident Type
Flight plan parsing failed, navigation log unavailable